createdAt,value
2023-05-12T00:00:45.093Z,50.877167
2023-05-12T00:01:45.109Z,50.877193
2023-05-12T00:02:45.209Z,50.877239
2023-05-12T00:03:45.268Z,50.877220
2023-05-12T00:04:45.085Z,50.877201
2023-05-12T00:05:45.030Z,50.877190
2023-05-12T00:06:44.994Z,50.877228
2023-05-12T00:07:45.029Z,50.877201
2023-05-12T00:08:45.002Z,50.877220
2023-05-12T00:09:45.010Z,50.877213
2023-05-12T00:10:44.957Z,50.877193
2023-05-12T00:11:44.957Z,50.877190
2023-05-12T00:12:44.960Z,50.877197
2023-05-12T00:13:44.970Z,50.877216
2023-05-12T00:14:44.921Z,50.877209
2023-05-12T00:15:44.895Z,50.877186
2023-05-12T00:16:44.979Z,50.877205
2023-05-12T00:17:44.957Z,50.877182
2023-05-12T00:18:44.944Z,50.877197
2023-05-12T00:19:44.887Z,50.877201
2023-05-12T00:20:44.861Z,50.877190
2023-05-12T00:21:44.839Z,50.877193
2023-05-12T00:22:44.869Z,50.877186
2023-05-12T00:23:44.832Z,50.877201
2023-05-12T00:24:44.816Z,50.877228
2023-05-12T00:25:45.800Z,50.877193
2023-05-12T00:26:44.830Z,50.877197
2023-05-12T00:27:44.791Z,50.877209
2023-05-12T00:28:44.803Z,50.877205
2023-05-12T00:29:44.774Z,50.877197
2023-05-12T00:30:44.758Z,50.877190
2023-05-12T00:31:44.771Z,50.877186
2023-05-12T00:32:44.811Z,50.877148
2023-05-12T00:33:44.752Z,50.877132
2023-05-12T00:34:44.718Z,50.877201
2023-05-12T00:35:44.710Z,50.877090
2023-05-12T00:36:44.695Z,50.876995
2023-05-12T00:37:44.709Z,50.877087
2023-05-12T00:38:44.707Z,50.877159
2023-05-12T00:39:45.666Z,50.877182
2023-05-12T00:40:44.672Z,50.877190
2023-05-12T00:41:44.659Z,50.877193
2023-05-12T00:42:44.650Z,50.877163
2023-05-12T00:43:44.630Z,50.877129
2023-05-12T00:44:44.647Z,50.877136
2023-05-12T00:45:44.736Z,50.877083
2023-05-12T00:46:44.605Z,50.877121
2023-05-12T00:47:44.638Z,50.877132
2023-05-12T00:48:44.600Z,50.877205
2023-05-12T00:49:44.598Z,50.877113
2023-05-12T00:50:44.567Z,50.877193
2023-05-12T00:51:44.557Z,50.877151
2023-05-12T00:52:44.546Z,50.877167
2023-05-12T00:53:49.755Z,50.877182
2023-05-12T00:54:46.592Z,50.877148
2023-05-12T00:55:44.518Z,50.877125
2023-05-12T00:56:44.504Z,50.877205
2023-05-12T00:57:44.498Z,50.877216
2023-05-12T00:58:44.512Z,50.877224
2023-05-12T00:59:44.466Z,50.877205
2023-05-12T01:00:44.481Z,50.877239
2023-05-12T01:01:44.480Z,50.877213
2023-05-12T01:02:44.518Z,50.877182
2023-05-12T01:03:44.470Z,50.877132
2023-05-12T01:04:44.482Z,50.877151
2023-05-12T01:05:44.444Z,50.877167
2023-05-12T01:06:44.490Z,50.877171
2023-05-12T01:07:44.411Z,50.877213
2023-05-12T01:08:44.401Z,50.877216
2023-05-12T01:09:44.381Z,50.877201
2023-05-12T01:10:44.372Z,50.877213
2023-05-12T01:11:44.378Z,50.877220
2023-05-12T01:12:44.363Z,50.877193
2023-05-12T01:13:44.336Z,50.877209
2023-05-12T01:14:44.336Z,50.877209
2023-05-12T01:15:44.309Z,50.877220
2023-05-12T01:16:44.374Z,50.877254
2023-05-12T01:17:44.480Z,50.877266
2023-05-12T01:18:44.305Z,50.877232
2023-05-12T01:19:44.329Z,50.877228
2023-05-12T01:20:44.270Z,50.877213
2023-05-12T01:21:44.273Z,50.877232
2023-05-12T01:22:44.261Z,50.877239
2023-05-12T01:23:44.327Z,50.877239
2023-05-12T01:24:44.240Z,50.877247
2023-05-12T01:25:44.228Z,50.877251
2023-05-12T01:26:44.225Z,50.877266
2023-05-12T01:27:44.230Z,50.877258
2023-05-12T01:28:44.203Z,50.877224
2023-05-12T01:29:44.219Z,50.877239
2023-05-12T01:30:44.225Z,50.877155
2023-05-12T01:31:44.243Z,50.877171
2023-05-12T01:32:44.215Z,50.877132
2023-05-12T01:33:44.162Z,50.877140
2023-05-12T01:34:44.161Z,50.877129
2023-05-12T01:35:44.142Z,50.877151
2023-05-12T01:36:44.134Z,50.877129
2023-05-12T01:37:44.142Z,50.877090
2023-05-12T01:38:44.107Z,50.877098
2023-05-12T01:39:44.101Z,50.877110
2023-05-12T01:40:44.127Z,50.877151
2023-05-12T01:41:44.080Z,50.877205
2023-05-12T01:42:44.104Z,50.877201
2023-05-12T01:43:44.057Z,50.877193
2023-05-12T01:44:44.087Z,50.877190
2023-05-12T01:45:44.033Z,50.877190
2023-05-12T01:46:44.076Z,50.877186
2023-05-12T01:47:44.071Z,50.877186
2023-05-12T01:48:44.013Z,50.877201
2023-05-12T01:49:44.040Z,50.877201
2023-05-12T01:50:44.006Z,50.877186
2023-05-12T01:51:43.965Z,50.877178
2023-05-12T01:52:43.944Z,50.877174
2023-05-12T01:53:43.958Z,50.877167
2023-05-12T01:54:43.930Z,50.877201
2023-05-12T01:55:43.943Z,50.877213
2023-05-12T01:56:43.913Z,50.877193
2023-05-12T01:57:43.929Z,50.877186
2023-05-12T01:58:43.929Z,50.877182
2023-05-12T01:59:43.984Z,50.877182
2023-05-12T02:00:43.886Z,50.877197
2023-05-12T02:01:44.054Z,50.877197
2023-05-12T02:02:43.938Z,50.877182
2023-05-12T02:03:44.016Z,50.877190
2023-05-12T02:04:44.834Z,50.877193
2023-05-12T02:05:43.834Z,50.877190
2023-05-12T02:06:43.840Z,50.877193
2023-05-12T02:07:43.813Z,50.877178
2023-05-12T02:08:44.837Z,50.877190
2023-05-12T02:09:43.796Z,50.877174
2023-05-12T02:10:43.789Z,50.877167
2023-05-12T02:11:43.793Z,50.877171
2023-05-12T02:12:43.774Z,50.877193
2023-05-12T02:13:43.808Z,50.877209
2023-05-12T02:14:43.745Z,50.877186
2023-05-12T02:15:43.740Z,50.877182
2023-05-12T02:16:43.840Z,50.877178
2023-05-12T02:17:43.765Z,50.877193
2023-05-12T02:18:44.764Z,50.877190
2023-05-12T02:19:43.703Z,50.877190
2023-05-12T02:20:43.687Z,50.877190
2023-05-12T02:21:43.717Z,50.877209
2023-05-12T02:22:43.876Z,50.877205
2023-05-12T02:23:43.666Z,50.877197
2023-05-12T02:24:43.648Z,50.877190
2023-05-12T02:25:43.648Z,50.877213
2023-05-12T02:26:43.709Z,50.877205
2023-05-12T02:27:43.636Z,50.877224
2023-05-12T02:28:43.605Z,50.877213
2023-05-12T02:29:43.597Z,50.877220
2023-05-12T02:30:43.600Z,50.877205
2023-05-12T02:31:43.622Z,50.877216
2023-05-12T02:32:43.652Z,50.877205
2023-05-12T02:33:43.547Z,50.877209
2023-05-12T02:34:43.548Z,50.877216
2023-05-12T02:35:43.541Z,50.877197
2023-05-12T02:36:43.545Z,50.877197
2023-05-12T02:37:43.535Z,50.877182
2023-05-12T02:38:43.522Z,50.877228
2023-05-12T02:39:43.517Z,50.877235
2023-05-12T02:40:43.509Z,50.877209
2023-05-12T02:41:43.477Z,50.877209
2023-05-12T02:42:43.513Z,50.877193
2023-05-12T02:43:43.493Z,50.877220
2023-05-12T02:44:43.452Z,50.877190
2023-05-12T02:45:43.439Z,50.877216
2023-05-12T02:46:43.439Z,50.877216
2023-05-12T02:47:43.452Z,50.877216
2023-05-12T02:48:43.424Z,50.877193
2023-05-12T02:49:43.410Z,50.877205
2023-05-12T02:50:43.373Z,50.877220
2023-05-12T02:51:43.389Z,50.877197
2023-05-12T02:52:43.396Z,50.877216
2023-05-12T02:53:43.356Z,50.877209
2023-05-12T02:54:43.335Z,50.877190
2023-05-12T02:55:43.343Z,50.877197
2023-05-12T02:56:43.327Z,50.877209
2023-05-12T02:57:43.349Z,50.877186
2023-05-12T02:58:43.305Z,50.877182
2023-05-12T02:59:43.359Z,50.877178
2023-05-12T03:00:43.322Z,50.877205
2023-05-12T03:01:43.324Z,50.877163
2023-05-12T03:02:43.390Z,50.877140
2023-05-12T03:03:43.599Z,50.877171
2023-05-12T03:04:43.241Z,50.877197
2023-05-12T03:05:43.299Z,50.877201
2023-05-12T03:06:43.231Z,50.877209
2023-05-12T03:07:43.218Z,50.877182
2023-05-12T03:08:43.233Z,50.877186
2023-05-12T03:09:43.206Z,50.877201
2023-05-12T03:10:43.193Z,50.877178
2023-05-12T03:11:43.173Z,50.877159
2023-05-12T03:12:43.180Z,50.877186
2023-05-12T03:13:43.188Z,50.877163
2023-05-12T03:14:43.188Z,50.877155
2023-05-12T03:15:43.198Z,50.877174
2023-05-12T03:16:43.183Z,50.877167
2023-05-12T03:17:43.176Z,50.877190
2023-05-12T03:18:43.121Z,50.877182
2023-05-12T03:19:43.098Z,50.877201
2023-05-12T03:20:43.105Z,50.877201
2023-05-12T03:21:43.102Z,50.877186
2023-05-12T03:22:43.189Z,50.877163
2023-05-12T03:23:43.054Z,50.877178
2023-05-12T03:24:43.063Z,50.877216
2023-05-12T03:25:43.056Z,50.877201
2023-05-12T03:26:43.052Z,50.877193
2023-05-12T03:27:43.023Z,50.877197
2023-05-12T03:28:43.015Z,50.877197
2023-05-12T03:29:43.039Z,50.877235
2023-05-12T03:30:43.013Z,50.877220
2023-05-12T03:31:43.020Z,50.877224
2023-05-12T03:32:43.028Z,50.877193
2023-05-12T03:33:42.966Z,50.877224
2023-05-12T03:34:42.956Z,50.877201
2023-05-12T03:35:42.967Z,50.877213
2023-05-12T03:36:42.963Z,50.877228
2023-05-12T03:37:42.924Z,50.877239
2023-05-12T03:38:42.948Z,50.877243
2023-05-12T03:39:42.907Z,50.877235
2023-05-12T03:40:42.907Z,50.877220
2023-05-12T03:41:42.880Z,50.877209
2023-05-12T03:42:42.887Z,50.877190
2023-05-12T03:43:43.138Z,50.877197
2023-05-12T03:44:42.867Z,50.877182
2023-05-12T03:45:42.837Z,50.877148
2023-05-12T03:46:42.911Z,50.877151
2023-05-12T03:47:43.041Z,50.877167
2023-05-12T03:48:42.816Z,50.877186
2023-05-12T03:49:42.833Z,50.877216
2023-05-12T03:50:42.801Z,50.877201
2023-05-12T03:51:42.793Z,50.877186
2023-05-12T03:52:42.811Z,50.877228
2023-05-12T03:53:42.788Z,50.877228
2023-05-12T03:54:42.767Z,50.877213
2023-05-12T03:55:42.752Z,50.877243
2023-05-12T03:56:42.749Z,50.877251
2023-05-12T03:57:42.894Z,50.877216
2023-05-12T03:58:42.732Z,50.877247
2023-05-12T03:59:42.712Z,50.877220
2023-05-12T04:00:44.137Z,50.877205
2023-05-12T04:01:42.726Z,50.877190
2023-05-12T04:02:42.749Z,50.877220
2023-05-12T04:03:42.842Z,50.877209
2023-05-12T04:04:42.665Z,50.877205
2023-05-12T04:05:42.661Z,50.877239
2023-05-12T04:06:42.647Z,50.877235
2023-05-12T04:07:42.640Z,50.877186
2023-05-12T04:08:42.677Z,50.877197
2023-05-12T04:09:42.625Z,50.877167
2023-05-12T04:10:42.618Z,50.877213
2023-05-12T04:11:42.618Z,50.877239
2023-05-12T04:12:42.608Z,50.877190
2023-05-12T04:13:42.578Z,50.877193
2023-05-12T04:14:43.410Z,50.877193
2023-05-12T04:15:43.575Z,50.877182
2023-05-12T04:16:42.578Z,50.877171
2023-05-12T04:17:42.585Z,50.877201
2023-05-12T04:18:42.588Z,50.877155
2023-05-12T04:19:42.550Z,50.877224
2023-05-12T04:20:42.564Z,50.877224
2023-05-12T04:21:42.505Z,50.877209
2023-05-12T04:22:42.509Z,50.877190
2023-05-12T04:23:42.483Z,50.877216
2023-05-12T04:24:42.478Z,50.877247
2023-05-12T04:25:42.494Z,50.877232
2023-05-12T04:26:42.459Z,50.877193
2023-05-12T04:27:42.451Z,50.877209
2023-05-12T04:28:42.469Z,50.877216
2023-05-12T04:29:42.428Z,50.877205
2023-05-12T04:30:42.414Z,50.877224
2023-05-12T04:31:42.547Z,50.877247
2023-05-12T04:32:42.441Z,50.877247
2023-05-12T04:33:42.388Z,50.877228
2023-05-12T04:34:42.385Z,50.877205
2023-05-12T04:35:42.416Z,50.877216
2023-05-12T04:36:42.380Z,50.877239
2023-05-12T04:38:14.247Z,50.877232
2023-05-12T04:38:42.347Z,50.877235
2023-05-12T04:39:42.368Z,50.877243
2023-05-12T04:40:42.331Z,50.877213
2023-05-12T04:41:42.314Z,50.877235
2023-05-12T04:42:42.296Z,50.877220
2023-05-12T04:44:43.262Z,50.877213
2023-05-12T04:45:42.285Z,50.877197
2023-05-12T04:46:42.412Z,50.877201
2023-05-12T04:47:42.282Z,50.877224
2023-05-12T04:48:42.275Z,50.877209
2023-05-12T04:49:42.214Z,50.877167
2023-05-12T04:50:42.239Z,50.877167
2023-05-12T04:51:42.265Z,50.877155
2023-05-12T04:52:42.258Z,50.877182
2023-05-12T04:53:42.172Z,50.877220
2023-05-12T04:54:42.162Z,50.877220
2023-05-12T04:55:42.175Z,50.877190
2023-05-12T04:56:42.143Z,50.877201
2023-05-12T04:57:42.137Z,50.877213
2023-05-12T04:58:42.133Z,50.877190
2023-05-12T04:59:42.144Z,50.877178
2023-05-12T05:00:42.128Z,50.877174
2023-05-12T05:01:42.146Z,50.877167
2023-05-12T05:02:42.141Z,50.877186
2023-05-12T05:03:42.162Z,50.877193
2023-05-12T05:04:42.077Z,50.877193
2023-05-12T05:05:42.066Z,50.877193
2023-05-12T05:06:42.061Z,50.877190
2023-05-12T05:07:42.035Z,50.877186
2023-05-12T05:08:42.028Z,50.877193
2023-05-12T05:09:42.022Z,50.877197
2023-05-12T05:10:41.996Z,50.877193
2023-05-12T05:11:42.028Z,50.877186
2023-05-12T05:12:41.984Z,50.877182
2023-05-12T05:13:41.968Z,50.877193
2023-05-12T05:14:41.962Z,50.877197
2023-05-12T05:15:41.989Z,50.877182
2023-05-12T05:16:41.994Z,50.877182
2023-05-12T05:17:42.008Z,50.877197
2023-05-12T05:18:41.994Z,50.877178
2023-05-12T05:19:57.092Z,50.877178
2023-05-12T05:20:45.589Z,50.877136
2023-05-12T05:21:42.906Z,50.877159
2023-05-12T05:22:41.890Z,50.877148
2023-05-12T05:23:41.897Z,50.877148
2023-05-12T05:24:41.895Z,50.877182
2023-05-12T05:25:41.862Z,50.877178
2023-05-12T05:26:41.857Z,50.877155
2023-05-12T05:27:41.850Z,50.877178
2023-05-12T05:28:41.846Z,50.877197
2023-05-12T05:29:41.839Z,50.877209
2023-05-12T05:30:41.839Z,50.877171
2023-05-12T05:31:41.865Z,50.877186
2023-05-12T05:32:41.817Z,50.877159
2023-05-12T05:33:41.780Z,50.877167
2023-05-12T05:34:41.820Z,50.877190
2023-05-12T05:35:41.794Z,50.877201
2023-05-12T05:36:41.788Z,50.877163
2023-05-12T05:37:41.745Z,50.877178
2023-05-12T05:38:41.741Z,50.877167
2023-05-12T05:39:41.730Z,50.877178
2023-05-12T05:40:52.286Z,50.877167
2023-05-12T05:41:43.747Z,50.877174
2023-05-12T05:42:41.730Z,50.877186
2023-05-12T05:43:41.692Z,50.877178
2023-05-12T05:44:41.684Z,50.877201
2023-05-12T05:45:41.664Z,50.877201
2023-05-12T05:46:41.731Z,50.877178
2023-05-12T05:47:41.684Z,50.877167
2023-05-12T05:48:41.684Z,50.877174
2023-05-12T05:49:41.645Z,50.877193
2023-05-12T05:50:41.622Z,50.877182
2023-05-12T05:51:41.623Z,50.877193
2023-05-12T05:52:41.598Z,50.877182
2023-05-12T05:53:41.586Z,50.877174
2023-05-12T05:54:41.702Z,50.877178
2023-05-12T05:55:41.571Z,50.877197
2023-05-12T05:56:41.570Z,50.877186
2023-05-12T05:57:41.557Z,50.877174
2023-05-12T05:58:41.550Z,50.877159
2023-05-12T05:59:41.580Z,50.877151
2023-05-12T06:00:41.560Z,50.877151
2023-05-12T06:01:41.540Z,50.877151
2023-05-12T06:02:41.731Z,50.877155
2023-05-12T06:03:41.601Z,50.877151
2023-05-12T06:04:41.489Z,50.877178
2023-05-12T06:05:41.499Z,50.877228
2023-05-12T06:06:41.464Z,50.877193
2023-05-12T06:07:41.447Z,50.877171
2023-05-12T06:08:41.459Z,50.877174
2023-05-12T06:09:41.456Z,50.877197
2023-05-12T06:10:41.440Z,50.877201
2023-05-12T06:11:41.417Z,50.877201
2023-05-12T06:12:41.424Z,50.877186
2023-05-12T06:13:41.458Z,50.877205
2023-05-12T06:14:41.393Z,50.877186
2023-05-12T06:15:41.365Z,50.877163
2023-05-12T06:16:41.389Z,50.877167
2023-05-12T06:17:41.397Z,50.877186
2023-05-12T06:18:41.382Z,50.877144
2023-05-12T06:19:41.326Z,50.877151
2023-05-12T06:20:42.333Z,50.877144
2023-05-12T06:21:41.305Z,50.877197
2023-05-12T06:22:41.333Z,50.877178
2023-05-12T06:23:41.292Z,50.877193
2023-05-12T06:24:41.280Z,50.877193
2023-05-12T06:25:41.277Z,50.877174
2023-05-12T06:26:41.308Z,50.877182
2023-05-12T06:27:41.248Z,50.877193
2023-05-12T06:28:41.239Z,50.877155
2023-05-12T06:29:41.244Z,50.877186
2023-05-12T06:30:41.231Z,50.877171
2023-05-12T06:31:41.320Z,50.877182
2023-05-12T06:32:41.220Z,50.877163
2023-05-12T06:33:41.201Z,50.877171
2023-05-12T06:34:41.187Z,50.877178
2023-05-12T06:35:41.184Z,50.877197
2023-05-12T06:36:41.177Z,50.877151
2023-05-12T06:37:41.150Z,50.877148
2023-05-12T06:38:41.143Z,50.877148
2023-05-12T06:39:41.150Z,50.877148
2023-05-12T06:40:41.142Z,50.877167
2023-05-12T06:41:41.113Z,50.877167
2023-05-12T06:42:41.106Z,50.877174
2023-05-12T06:43:41.108Z,50.877209
2023-05-12T06:44:42.236Z,50.877201
2023-05-12T06:45:42.076Z,50.877205
2023-05-12T06:46:41.133Z,50.877174
2023-05-12T06:47:41.082Z,50.877159
2023-05-12T06:48:41.094Z,50.877167
2023-05-12T06:49:41.035Z,50.877186
2023-05-12T06:50:41.102Z,50.877201
2023-05-12T06:51:41.019Z,50.877209
2023-05-12T06:52:41.026Z,50.877201
2023-05-12T06:53:41.017Z,50.877186
2023-05-12T06:54:40.989Z,50.877186
2023-05-12T06:55:40.987Z,50.877220
2023-05-12T06:56:40.958Z,50.877216
2023-05-12T06:57:40.953Z,50.877205
2023-05-12T06:58:40.951Z,50.877197
2023-05-12T06:59:41.008Z,50.877167
2023-05-12T07:00:41.920Z,50.877201
2023-05-12T07:01:41.105Z,50.877171
2023-05-12T07:02:40.953Z,50.877144
2023-05-12T07:03:41.030Z,50.877129
2023-05-12T07:04:40.886Z,50.877125
2023-05-12T07:05:40.960Z,50.877151
2023-05-12T07:06:40.855Z,50.877129
2023-05-12T07:07:40.858Z,50.877155
2023-05-12T07:08:40.855Z,50.877190
2023-05-12T07:09:40.857Z,50.877205
2023-05-12T07:10:40.851Z,50.877075
2023-05-12T07:11:40.804Z,50.877125
2023-05-12T07:12:40.808Z,50.877159
2023-05-12T07:13:40.794Z,50.877167
2023-05-12T07:14:40.782Z,50.877144
2023-05-12T07:15:40.830Z,50.877174
2023-05-12T07:16:40.758Z,50.877178
2023-05-12T07:17:40.875Z,50.877155
2023-05-12T07:18:40.767Z,50.877186
2023-05-12T07:19:40.748Z,50.877186
2023-05-12T07:20:40.755Z,50.877140
2023-05-12T07:21:40.745Z,50.877129
2023-05-12T07:22:40.746Z,50.877151
2023-05-12T07:23:40.697Z,50.877155
2023-05-12T07:24:40.683Z,50.877151
2023-05-12T07:25:40.747Z,50.877167
2023-05-12T07:26:40.654Z,50.877144
2023-05-12T07:27:40.649Z,50.877163
2023-05-12T07:28:40.630Z,50.877167
2023-05-12T07:29:40.683Z,50.877163
2023-05-12T07:30:40.646Z,50.877163
2023-05-12T07:31:40.655Z,50.877155
2023-05-12T07:32:40.651Z,50.877178
2023-05-12T07:33:40.598Z,50.877178
2023-05-12T07:34:40.609Z,50.877136
2023-05-12T07:35:40.643Z,50.877151
2023-05-12T07:36:40.555Z,50.877163
2023-05-12T07:37:40.576Z,50.877186
2023-05-12T07:38:41.105Z,50.877178
2023-05-12T07:39:40.601Z,50.877178
2023-05-12T07:40:40.517Z,50.877171
2023-05-12T07:41:40.512Z,50.877159
2023-05-12T07:42:40.502Z,50.877171
2023-05-12T07:43:40.493Z,50.877163
2023-05-12T07:44:40.500Z,50.877155
2023-05-12T07:45:40.470Z,50.877178
2023-05-12T07:46:40.507Z,50.877167
2023-05-12T07:47:40.470Z,50.877167
2023-05-12T07:48:40.649Z,50.877178
2023-05-12T07:49:40.545Z,50.877167
2023-05-12T07:50:40.427Z,50.877151
2023-05-12T07:51:40.435Z,50.877151
2023-05-12T07:52:40.443Z,50.877174
2023-05-12T07:53:40.394Z,50.877167
2023-05-12T07:54:40.389Z,50.877140
2023-05-12T07:55:40.411Z,50.877155
2023-05-12T07:56:40.351Z,50.877113
2023-05-12T07:57:40.386Z,50.877113
2023-05-12T07:58:40.359Z,50.877121
2023-05-12T07:59:40.377Z,50.877125
2023-05-12T08:00:40.331Z,50.877102
2023-05-12T08:01:40.380Z,50.877102
2023-05-12T08:02:40.391Z,50.877087
2023-05-12T08:03:40.446Z,50.877094
2023-05-12T08:04:41.062Z,50.877136
2023-05-12T08:05:40.325Z,50.877151
2023-05-12T08:06:40.259Z,50.877144
2023-05-12T08:07:41.158Z,50.877056
2023-05-12T08:08:40.253Z,50.877151
2023-05-12T08:09:40.249Z,50.877171
2023-05-12T08:10:40.220Z,50.877186
2023-05-12T08:11:40.212Z,50.877140
2023-05-12T08:12:40.251Z,50.877148
2023-05-12T08:13:40.195Z,50.877136
2023-05-12T08:14:40.196Z,50.877159
2023-05-12T08:15:40.180Z,50.877228
2023-05-12T08:16:40.263Z,50.877178
2023-05-12T08:17:40.193Z,50.877125
2023-05-12T08:18:40.190Z,50.877125
2023-05-12T08:19:40.153Z,50.877193
2023-05-12T08:20:40.150Z,50.877201
2023-05-12T08:21:40.146Z,50.877232
2023-05-12T08:22:40.223Z,50.877190
2023-05-12T08:23:40.256Z,50.877182
2023-05-12T08:24:40.101Z,50.877136
2023-05-12T08:25:40.159Z,50.877129
2023-05-12T08:26:40.062Z,50.877148
2023-05-12T08:27:40.065Z,50.877117
2023-05-12T08:28:40.081Z,50.877155
2023-05-12T08:29:40.062Z,50.877144
2023-05-12T08:30:40.088Z,50.877151
2023-05-12T08:31:40.174Z,50.877148
2023-05-12T08:32:40.008Z,50.877125
2023-05-12T08:33:40.000Z,50.877144
2023-05-12T08:34:40.012Z,50.877155
2023-05-12T08:35:40.020Z,50.877174
2023-05-12T08:36:39.964Z,50.877148
2023-05-12T08:37:39.966Z,50.877140
2023-05-12T08:38:39.971Z,50.877144
2023-05-12T08:39:39.950Z,50.877125
2023-05-12T08:40:39.915Z,50.877129
2023-05-12T08:41:39.906Z,50.877132
2023-05-12T08:42:39.895Z,50.877129
2023-05-12T08:43:39.897Z,50.877136
2023-05-12T08:44:39.957Z,50.877148
2023-05-12T08:45:39.858Z,50.877136
2023-05-12T08:46:39.933Z,50.877117
2023-05-12T08:47:39.888Z,50.877117
2023-05-12T08:48:39.842Z,50.877121
2023-05-12T08:49:39.829Z,50.877132
2023-05-12T08:50:40.847Z,50.877117
2023-05-12T08:51:39.823Z,50.877151
2023-05-12T08:52:39.787Z,50.877151
2023-05-12T08:53:39.793Z,50.877155
2023-05-12T08:54:48.496Z,50.877163
2023-05-12T08:55:43.455Z,50.877167
2023-05-12T08:57:40.752Z,50.877167
2023-05-12T08:58:41.961Z,50.877171
2023-05-12T08:59:40.737Z,50.877155
2023-05-12T09:00:39.788Z,50.877155
2023-05-12T09:01:39.760Z,50.877151
2023-05-12T09:02:52.023Z,50.877155
2023-05-12T09:03:41.806Z,50.877155
2023-05-12T09:04:39.742Z,50.877155
2023-05-12T09:05:39.679Z,50.877155
2023-05-12T09:06:39.659Z,50.877144
2023-05-12T09:07:39.650Z,50.877159
2023-05-12T09:08:39.649Z,50.877167
2023-05-12T09:09:39.717Z,50.877167
2023-05-12T09:10:39.671Z,50.877171
2023-05-12T09:11:39.647Z,50.877190
2023-05-12T09:12:39.610Z,50.877167
2023-05-12T09:13:39.576Z,50.877148
2023-05-12T09:14:39.579Z,50.877148
2023-05-12T09:15:39.570Z,50.877163
2023-05-12T09:16:39.656Z,50.877171
2023-05-12T09:17:39.570Z,50.877178
2023-05-12T09:18:39.581Z,50.877190
2023-05-12T09:19:39.518Z,50.877178
2023-05-12T09:20:39.544Z,50.877151
2023-05-12T09:21:39.520Z,50.877159
2023-05-12T09:22:39.493Z,50.877167
2023-05-12T09:23:39.498Z,50.877159
2023-05-12T09:24:39.499Z,50.877132
2023-05-12T09:25:39.529Z,50.877140
2023-05-12T09:26:39.460Z,50.877159
2023-05-12T09:27:39.443Z,50.877151
2023-05-12T09:28:39.476Z,50.877167
2023-05-12T09:29:48.128Z,50.877144
2023-05-12T09:30:40.448Z,50.877171
2023-05-12T09:31:39.462Z,50.877155
2023-05-12T09:32:39.440Z,50.877167
2023-05-12T09:33:39.464Z,50.877171
2023-05-12T09:34:39.405Z,50.877167
2023-05-12T09:35:39.387Z,50.877129
2023-05-12T09:36:39.380Z,50.877159
2023-05-12T09:37:39.352Z,50.877159
2023-05-12T09:38:39.355Z,50.877178
2023-05-12T09:39:39.345Z,50.877174
2023-05-12T09:40:39.330Z,50.877167
2023-05-12T09:41:39.344Z,50.877171
2023-05-12T09:42:39.304Z,50.877167
2023-05-12T09:43:39.300Z,50.877140
2023-05-12T09:44:39.301Z,50.877136
2023-05-12T09:45:39.343Z,50.877144
2023-05-12T09:46:39.286Z,50.877159
2023-05-12T09:47:39.382Z,50.877163
2023-05-12T09:48:39.253Z,50.877163
2023-05-12T09:49:39.246Z,50.877151
2023-05-12T09:50:47.403Z,50.877163
2023-05-12T09:51:41.252Z,50.877174
2023-05-12T09:52:39.224Z,50.877159
2023-05-12T09:53:39.205Z,50.877182
2023-05-12T09:54:39.262Z,50.877197
2023-05-12T09:55:39.170Z,50.877178
2023-05-12T09:56:39.169Z,50.877174
2023-05-12T09:57:39.134Z,50.877171
2023-05-12T09:58:39.193Z,50.877178
2023-05-12T09:59:40.982Z,50.877140
2023-05-12T10:00:55.118Z,50.877174
2023-05-12T10:01:41.185Z,50.877182
2023-05-12T10:02:39.117Z,50.877171
2023-05-12T10:03:39.104Z,50.877182
2023-05-12T10:04:39.117Z,50.877178
2023-05-12T10:05:39.098Z,50.877186
2023-05-12T10:06:39.056Z,50.877151
2023-05-12T10:07:39.062Z,50.877193
2023-05-12T10:08:39.102Z,50.877190
2023-05-12T10:09:39.062Z,50.877182
2023-05-12T10:10:39.036Z,50.877178
2023-05-12T10:11:39.004Z,50.877201
2023-05-12T10:12:38.999Z,50.877193
2023-05-12T10:13:39.036Z,50.877182
2023-05-12T10:14:38.979Z,50.877190
2023-05-12T10:15:38.973Z,50.877186
2023-05-12T10:16:39.035Z,50.877209
2023-05-12T10:17:38.988Z,50.877167
2023-05-12T10:18:38.973Z,50.877155
2023-05-12T10:19:38.960Z,50.877197
2023-05-12T10:20:38.980Z,50.877186
2023-05-12T10:21:38.925Z,50.877171
2023-05-12T10:22:38.956Z,50.877167
2023-05-12T10:23:38.903Z,50.877167
2023-05-12T10:24:38.889Z,50.877151
2023-05-12T10:25:38.940Z,50.877129
2023-05-12T10:26:38.901Z,50.877140
2023-05-12T10:27:38.867Z,50.877144
2023-05-12T10:28:38.850Z,50.877136
2023-05-12T10:29:38.867Z,50.877171
2023-05-12T10:30:38.836Z,50.877193
2023-05-12T10:31:38.898Z,50.877174
2023-05-12T10:32:38.860Z,50.877171
2023-05-12T10:33:38.816Z,50.877190
2023-05-12T10:34:38.790Z,50.877144
2023-05-12T10:35:38.818Z,50.877182
2023-05-12T10:36:38.782Z,50.877178
2023-05-12T10:38:10.687Z,50.877167
2023-05-12T10:38:38.786Z,50.877186
2023-05-12T10:39:38.781Z,50.877186
2023-05-12T10:40:38.765Z,50.877110
2023-05-12T10:41:38.753Z,50.877121
2023-05-12T10:42:38.771Z,50.877171
2023-05-12T10:43:39.733Z,50.877220
2023-05-12T10:44:38.743Z,50.877205
2023-05-12T10:45:38.736Z,50.877266
2023-05-12T10:46:38.781Z,50.877232
2023-05-12T10:47:38.752Z,50.877232
2023-05-12T10:48:38.700Z,50.877281
2023-05-12T10:49:38.688Z,50.877281
2023-05-12T10:50:38.667Z,50.877274
2023-05-12T10:51:38.668Z,50.877281
2023-05-12T10:52:39.366Z,50.877216
2023-05-12T10:53:48.108Z,50.877163
2023-05-12T10:54:40.702Z,50.877293
2023-05-12T10:55:38.776Z,50.877300
2023-05-12T10:56:38.804Z,50.877197
2023-05-12T10:57:38.922Z,50.877163
2023-05-12T10:58:38.913Z,50.877163
2023-05-12T10:59:38.849Z,50.877262
2023-05-12T11:00:38.968Z,50.877277
2023-05-12T11:01:39.549Z,50.877251
2023-05-12T11:02:39.943Z,50.877251
2023-05-12T11:03:39.628Z,50.877220
2023-05-12T11:04:38.658Z,50.877193
2023-05-12T11:05:38.674Z,50.877247
2023-05-12T11:06:40.821Z,50.877274
2023-05-12T11:07:39.767Z,50.877232
2023-05-12T11:08:39.878Z,50.877232
2023-05-12T11:09:45.314Z,50.877228
2023-05-12T11:10:40.457Z,50.877201
2023-05-12T11:11:38.601Z,50.877197
2023-05-12T11:12:38.450Z,50.877182
2023-05-12T11:13:38.487Z,50.877220
2023-05-12T11:14:38.444Z,50.877239
2023-05-12T11:15:38.467Z,50.877235
2023-05-12T11:16:38.620Z,50.877224
2023-05-12T11:17:38.477Z,50.877171
2023-05-12T11:18:38.468Z,50.877110
2023-05-12T11:19:38.395Z,50.877148
2023-05-12T11:20:38.486Z,50.877136
2023-05-12T11:21:38.371Z,50.877140
2023-05-12T11:22:38.366Z,50.877121
2023-05-12T11:23:38.406Z,50.877129
2023-05-12T11:24:38.341Z,50.877121
2023-05-12T11:25:38.438Z,50.877098
2023-05-12T11:26:38.324Z,50.877121